Time;durP1;ratioP1;P1;durP2;ratioP2;P2;SDS_P1;SDS_P2;PMS_P1;PMS_P2;Temp;Humidity;BMP_temperature;BMP_pressure;BME280_temperature;BME280_humidity;BME280_pressure;Samples;Min_cycle;Max_cycle;Signal;HPM_P1;HPM_P2
2023/07/11 00:00:37;;;;;;;;;;;;;;;;;;4960372;28;19930;-80
2023/07/11 00:03:10;;;;;;;;;;;;;;;;;;4946164;29;19931;-82
2023/07/11 00:05:38;;;;;;;;;;;;;;;;;;4948434;29;20367;-81
2023/07/11 00:08:10;;;;;;;;;;;;;;;;;;4961476;28;19941;-81
2023/07/11 00:10:38;;;;;;;;;;;;;;;;;;4948482;29;19938;-80
2023/07/11 00:13:05;;;;;;;;;;;;;;;;;;4944582;29;19938;-82
2023/07/11 00:15:33;;;;;;;;;;;;;;;;;;4961937;28;20342;-82
2023/07/11 00:18:05;;;;;;;;;;;;;;;;;;4944678;29;20010;-81
2023/07/11 00:20:33;;;;;;;;;;;;;;;;;;4947543;29;19930;-81
2023/07/11 00:23:00;;;;;;;;;;;;;;;;;;4961037;28;20323;-81
2023/07/11 00:25:28;;;;;;;;;;;;;;;;;;4947192;29;19941;-81
2023/07/11 00:28:00;;;;;;;;;;;;;;;;;;4944405;28;20298;-80
2023/07/11 00:30:28;;;;;;;;;;;;;;;;;;4961194;28;19934;-82
2023/07/11 00:33:00;;;;;;;;;;;;;;;;;;4948397;29;20370;-82
2023/07/11 00:35:28;;;;;;;;;;;;;;;;;;4939445;29;20430;-81
2023/07/11 00:38:01;;;;;;;;;;;;;;;;;;4962125;28;19930;-81
2023/07/11 00:40:29;;;;;;;;;;;;;;;;;;4945261;28;19930;-82
2023/07/11 00:43:02;;;;;;;;;;;;;;;;;;4946748;29;19933;-81
2023/07/11 00:45:29;;;;;;;;;;;;;;;;;;4947157;29;20272;-81
2023/07/11 00:48:02;;;;;;;;;;;;;;;;;;4946543;29;20402;-81
2023/07/11 00:50:35;;;;;;;;;;;;;;;;;;4961270;28;19935;-82
2023/07/11 00:53:07;;;;;;;;;;;;;;;;;;4961209;28;20467;-81
2023/07/11 00:55:40;;;;;;;;;;;;;;;;;;4962289;28;20359;-81
2023/07/11 00:58:08;;;;;;;;;;;;;;;;;;4946185;29;19930;-82
2023/07/11 01:00:35;;;;;;;;;;;;;;;;;;4948570;29;19931;-80
2023/07/11 01:03:08;;;;;;;;;;;;;;;;;;4944852;29;20291;-82
2023/07/11 01:05:37;;;;;;;;;;;;;;;;;;4946105;29;19935;-82
2023/07/11 01:08:04;;;;;;;;;;;;;;;;;;4961693;28;19938;-81
2023/07/11 01:10:37;;;;;;;;;;;;;;;;;;4946262;29;19927;-82
2023/07/11 01:13:04;;;;;;;;;;;;;;;;;;4947713;29;19927;-82
2023/07/11 01:15:37;;;;;;;;;;;;;;;;;;4945104;29;19931;-81
2023/07/11 01:18:04;;;;;;;;;;;;;;;;;;4944837;29;19967;-81
2023/07/11 01:20:37;;;;;;;;;;;;;;;;;;4960973;28;19930;-81
2023/07/11 01:23:04;;;;;;;;;;;;;;;;;;4961414;28;20511;-81
2023/07/11 01:25:38;;;;;;;;;;;;;;;;;;4943944;28;19931;-81
2023/07/11 01:28:12;;;;;;;;;;;;;;;;;;4945183;28;19930;-79
2023/07/11 01:30:40;;;;;;;;;;;;;;;;;;4946065;29;19962;-80
2023/07/11 01:33:08;;;;;;;;;;;;;;;;;;4947781;29;19930;-78
2023/07/11 01:35:36;;;;;;;;;;;;;;;;;;4943747;29;19931;-79
2023/07/11 01:38:08;;;;;;;;;;;;;;;;;;4945995;29;19930;-79
2023/07/11 01:40:36;;;;;;;;;;;;;;;;;;4946439;29;19941;-79
2023/07/11 01:43:09;;;;;;;;;;;;;;;;;;4947506;29;20294;-79
2023/07/11 01:45:41;;;;;;;;;;;;;;;;;;4943793;29;20568;-78
2023/07/11 01:48:14;;;;;;;;;;;;;;;;;;4945285;29;19930;-80
2023/07/11 01:50:41;;;;;;;;;;;;;;;;;;4959904;28;20392;-81
2023/07/11 01:53:14;;;;;;;;;;;;;;;;;;4964253;28;19937;-81
2023/07/11 01:55:42;;;;;;;;;;;;;;;;;;4962628;28;20314;-81
2023/07/11 01:58:10;;;;;;;;;;;;;;;;;;4964031;28;19926;-81
2023/07/11 02:00:43;;;;;;;;;;;;;;;;;;4951285;29;19937;-82
2023/07/11 02:03:15;;;;;;;;;;;;;;;;;;4964930;28;20064;-81
2023/07/11 02:05:43;;;;;;;;;;;;;;;;;;4947614;29;19930;-81
2023/07/11 02:08:16;;;;;;;;;;;;;;;;;;4949930;29;19934;-81
2023/07/11 02:10:44;;;;;;;;;;;;;;;;;;4948162;29;19930;-81
2023/07/11 02:13:12;;;;;;;;;;;;;;;;;;4962465;28;19930;-79
2023/07/11 02:15:44;;;;;;;;;;;;;;;;;;4960792;28;19927;-79
2023/07/11 02:18:12;;;;;;;;;;;;;;;;;;4947615;29;19926;-79
2023/07/11 02:20:39;;;;;;;;;;;;;;;;;;4948937;29;19938;-79
2023/07/11 02:23:12;;;;;;;;;;;;;;;;;;4949953;29;20464;-79
2023/07/11 02:25:39;;;;;;;;;;;;;;;;;;4962529;28;19946;-78
2023/07/11 02:28:12;;;;;;;;;;;;;;;;;;4949398;29;19937;-82
2023/07/11 02:30:40;;;;;;;;;;;;;;;;;;4959249;28;19930;-81
2023/07/11 02:33:12;;;;;;;;;;;;;;;;;;4941050;29;19937;-81
2023/07/11 02:35:40;;;;;;;;;;;;;;;;;;4950091;29;19934;-81
2023/07/11 02:38:07;;;;;;;;;;;;;;;;;;4949418;29;19927;-82
2023/07/11 02:40:40;;;;;;;;;;;;;;;;;;4950909;29;19937;-81
2023/07/11 02:43:13;;;;;;;;;;;;;;;;;;4948474;29;19931;-82
2023/07/11 02:45:40;;;;;;;;;;;;;;;;;;4947752;29;19934;-81
2023/07/11 02:48:08;;;;;;;;;;;;;;;;;;4963535;28;19930;-81
2023/07/11 02:50:35;;;;;;;;;;;;;;;;;;4939462;29;19937;-81
2023/07/11 02:53:03;;;;;;;;;;;;;;;;;;4950232;29;20572;-81
2023/07/11 02:55:30;;;;;;;;;;;;;;;;;;4949117;29;20276;-81
2023/07/11 02:58:03;;;;;;;;;;;;;;;;;;4940200;28;19938;-82
2023/07/11 03:00:30;;;;;;;;;;;;;;;;;;4955512;28;19930;-81
2023/07/11 03:03:03;;;;;;;;;;;;;;;;;;4944350;28;20327;-82
2023/07/11 03:05:31;;;;;;;;;;;;;;;;;;4949659;29;19937;-81
2023/07/11 03:07:58;;;;;;;;;;;;;;;;;;4938856;29;19937;-81
2023/07/11 03:10:31;;;;;;;;;;;;;;;;;;4948592;29;19930;-81
2023/07/11 03:12:58;;;;;;;;;;;;;;;;;;4940282;29;19953;-80
2023/07/11 03:15:26;;;;;;;;;;;;;;;;;;4948564;29;19926;-82
2023/07/11 03:17:54;;;;;;;;;;;;;;;;;;4947666;29;19945;-81
2023/07/11 03:20:26;;;;;;;;;;;;;;;;;;4949143;29;19930;-81
2023/07/11 03:22:59;;;;;;;;;;;;;;;;;;4947234;29;19961;-81
2023/07/11 03:25:26;;;;;;;;;;;;;;;;;;4949292;29;19931;-82
2023/07/11 03:27:54;;;;;;;;;;;;;;;;;;4963445;28;19926;-81
2023/07/11 03:30:27;;;;;;;;;;;;;;;;;;4948915;29;19930;-82
2023/07/11 03:32:59;;;;;;;;;;;;;;;;;;4946303;29;19930;-81
2023/07/11 03:35:27;;;;;;;;;;;;;;;;;;4946227;29;19930;-81
2023/07/11 03:38:00;;;;;;;;;;;;;;;;;;4947073;29;20299;-82
2023/07/11 03:40:32;;;;;;;;;;;;;;;;;;4945852;29;19930;-82
2023/07/11 03:43:05;;;;;;;;;;;;;;;;;;4959740;28;19941;-81
2023/07/11 03:45:32;;;;;;;;;;;;;;;;;;4947872;29;20295;-81
2023/07/11 03:48:05;;;;;;;;;;;;;;;;;;4942035;29;19930;-82
2023/07/11 03:50:32;;;;;;;;;;;;;;;;;;4947971;29;19942;-82
2023/07/11 03:53:00;;;;;;;;;;;;;;;;;;4947466;29;19930;-81
2023/07/11 03:55:27;;;;;;;;;;;;;;;;;;4961713;28;19934;-82
2023/07/11 03:58:00;;;;;;;;;;;;;;;;;;4948155;29;20310;-81
2023/07/11 04:00:28;;;;;;;;;;;;;;;;;;4961617;28;19935;-82
2023/07/11 04:02:55;;;;;;;;;;;;;;;;;;4948168;29;19930;-82
2023/07/11 04:05:23;;;;;;;;;;;;;;;;;;4946200;29;19937;-81
2023/07/11 04:07:50;;;;;;;;;;;;;;;;;;4949241;29;20049;-79
2023/07/11 04:10:18;;;;;;;;;;;;;;;;;;4947588;29;19931;-81
2023/07/11 04:12:45;;;;;;;;;;;;;;;;;;4941134;28;19937;-81
2023/07/11 04:15:14;;;;;;;;;;;;;;;;;;4945506;28;19926;-81
2023/07/11 04:17:41;;;;;;;;;;;;;;;;;;4946687;29;20846;-81
2023/07/11 04:20:14;;;;;;;;;;;;;;;;;;4946680;28;19930;-82
2023/07/11 04:22:41;;;;;;;;;;;;;;;;;;4957261;28;20367;-81
2023/07/11 04:25:14;;;;;;;;;;;;;;;;;;4945628;29;19930;-82
2023/07/11 04:27:41;;;;;;;;;;;;;;;;;;4946932;29;19926;-81
2023/07/11 04:30:14;;;;;;;;;;;;;;;;;;4947404;29;19937;-81
2023/07/11 04:32:48;;;;;;;;;;;;;;;;;;4944586;29;19935;-81
2023/07/11 04:35:16;;;;;;;;;;;;;;;;;;4947424;28;20427;-81
2023/07/11 04:37:43;;;;;;;;;;;;;;;;;;4946181;29;19931;-79
2023/07/11 04:40:16;;;;;;;;;;;;;;;;;;4931061;29;19937;-79
2023/07/11 04:42:43;;;;;;;;;;;;;;;;;;4935877;29;19934;-82
2023/07/11 04:45:16;;;;;;;;;;;;;;;;;;4941864;29;19953;-83
2023/07/11 04:47:43;;;;;;;;;;;;;;;;;;4941540;29;19930;-82
2023/07/11 04:50:16;;;;;;;;;;;;;;;;;;4943368;29;19927;-81
2023/07/11 04:52:44;;;;;;;;;;;;;;;;;;4946365;28;19931;-83
2023/07/11 04:55:16;;;;;;;;;;;;;;;;;;4941071;29;20387;-82
2023/07/11 04:57:49;;;;;;;;;;;;;;;;;;4943669;29;19941;-82
2023/07/11 05:00:21;;;;;;;;;;;;;;;;;;4939424;29;19931;-79
2023/07/11 05:02:54;;;;;;;;;;;;;;;;;;4939468;28;20310;-80
2023/07/11 05:05:21;;;;;;;;;;;;;;;;;;4939476;29;19930;-82
2023/07/11 05:07:49;;;;;;;;;;;;;;;;;;4941737;29;19934;-80
2023/07/11 05:10:16;;;;;;;;;;;;;;;;;;4934021;28;19930;-79
2023/07/11 05:12:44;;;;;;;;;;;;;;;;;;4943129;28;19949;-79
2023/07/11 05:15:12;;;;;;;;;;;;;;;;;;4939836;29;19930;-79
2023/07/11 05:17:40;;;;;;;;;;;;;;;;;;4938740;28;19974;-81
2023/07/11 05:20:12;;;;;;;;;;;;;;;;;;4943192;29;19931;-81
2023/07/11 05:22:40;;;;;;;;;;;;;;;;;;4941935;29;19931;-78
2023/07/11 05:25:08;;;;;;;;;;;;;;;;;;4942063;29;19930;-79
2023/07/11 05:27:35;;;;;;;;;;;;;;;;;;4941121;28;20011;-77
2023/07/11 05:30:08;;;;;;;;;;;;;;;;;;4943395;29;19937;-78
2023/07/11 05:32:35;;;;;;;;;;;;;;;;;;4940711;29;19931;-77
2023/07/11 05:35:08;;;;;;;;;;;;;;;;;;4959171;28;19937;-78
2023/07/11 05:37:35;;;;;;;;;;;;;;;;;;4941383;28;19930;-78
2023/07/11 05:40:03;;;;;;;;;;;;;;;;;;4942481;29;19930;-79
2023/07/11 05:42:31;;;;;;;;;;;;;;;;;;4942720;29;19931;-77
2023/07/11 05:45:03;;;;;;;;;;;;;;;;;;4947236;29;19937;-77
2023/07/11 05:47:31;;;;;;;;;;;;;;;;;;4949234;29;20394;-77
2023/07/11 05:49:59;;;;;;;;;;;;;;;;;;4947822;29;19933;-78
2023/07/11 05:52:31;;;;;;;;;;;;;;;;;;4947644;29;19930;-78
2023/07/11 05:54:59;;;;;;;;;;;;;;;;;;4947293;29;19938;-78
2023/07/11 05:57:26;;;;;;;;;;;;;;;;;;4940913;29;19937;-78
2023/07/11 05:59:54;;;;;;;;;;;;;;;;;;4950225;29;20894;-77
2023/07/11 06:02:21;;;;;;;;;;;;;;;;;;4941543;29;21715;-77
2023/07/11 06:04:54;;;;;;;;;;;;;;;;;;4947427;29;19927;-78
2023/07/11 06:07:22;;;;;;;;;;;;;;;;;;4957350;28;19937;-77
2023/07/11 06:09:55;;;;;;;;;;;;;;;;;;4946262;29;19934;-77
2023/07/11 06:12:28;;;;;;;;;;;;;;;;;;4940686;29;19938;-77
2023/07/11 06:14:55;;;;;;;;;;;;;;;;;;4948885;29;19941;-77
2023/07/11 06:17:23;;;;;;;;;;;;;;;;;;4948294;28;20458;-77
2023/07/11 06:19:50;;;;;;;;;;;;;;;;;;4948992;29;19935;-77
2023/07/11 06:22:23;;;;;;;;;;;;;;;;;;4963252;28;19938;-77
2023/07/11 06:24:58;;;;;;;;;;;;;;;;;;4948789;29;20774;-77
2023/07/11 06:27:31;;;;;;;;;;;;;;;;;;4946150;29;19938;-77
2023/07/11 06:29:59;;;;;;;;;;;;;;;;;;4946943;29;19931;-77
2023/07/11 06:32:26;;;;;;;;;;;;;;;;;;4949812;29;19931;-77
2023/07/11 06:34:54;;;;;;;;;;;;;;;;;;4949278;29;19938;-77
2023/07/11 06:37:26;;;;;;;;;;;;;;;;;;4949285;28;19930;-77
2023/07/11 06:39:54;;;;;;;;;;;;;;;;;;4961699;28;19937;-78
2023/07/11 06:42:21;;;;;;;;;;;;;;;;;;4949110;29;19999;-78
2023/07/11 06:44:49;;;;;;;;;;;;;;;;;;4949074;29;19938;-77
2023/07/11 06:47:17;;;;;;;;;;;;;;;;;;4949271;29;19930;-77
2023/07/11 06:49:44;;;;;;;;;;;;;;;;;;4963680;28;19930;-77
2023/07/11 06:52:12;;;;;;;;;;;;;;;;;;4946871;28;19931;-77
2023/07/11 06:54:45;;;;;;;;;;;;;;;;;;4940658;29;19937;-78
2023/07/11 06:57:12;;;;;;;;;;;;;;;;;;4954667;28;20397;-78
2023/07/11 06:59:40;;;;;;;;;;;;;;;;;;4940035;29;19941;-77
2023/07/11 07:02:08;;;;;;;;;;;;;;;;;;4917425;29;19934;-78
2023/07/11 07:04:36;;;;;;;;;;;;;;;;;;4928377;29;19942;-77
2023/07/11 07:07:03;;;;;;;;;;;;;;;;;;4910280;29;20546;-77
2023/07/11 07:09:31;;;;;;;;;;;;;;;;;;4923974;29;19942;-77
2023/07/11 07:11:59;;;;;;;;;;;;;;;;;;4911137;29;19941;-77
2023/07/11 07:14:27;;;;;;;;;;;;;;;;;;4917764;29;20591;-78
2023/07/11 07:16:59;;;;;;;;;;;;;;;;;;4912710;29;19935;-77
2023/07/11 07:19:27;;;;;;;;;;;;;;;;;;4917277;29;19957;-77
2023/07/11 07:21:54;;;;;;;;;;;;;;;;;;4904807;28;19935;-77
2023/07/11 07:24:22;;;;;;;;;;;;;;;;;;4907351;29;20736;-77
2023/07/11 07:26:54;;;;;;;;;;;;;;;;;;4912419;29;19948;-78
2023/07/11 07:29:27;;;;;;;;;;;;;;;;;;4908861;28;19935;-78
2023/07/11 07:31:55;;;;;;;;;;;;;;;;;;4914125;28;19970;-77
2023/07/11 07:34:30;;;;;;;;;;;;;;;;;;4910084;28;19931;-77
2023/07/11 07:36:57;;;;;;;;;;;;;;;;;;4908725;29;19938;-78
2023/07/11 07:39:25;;;;;;;;;;;;;;;;;;4909584;29;19935;-78
2023/07/11 07:41:52;;;;;;;;;;;;;;;;;;4909732;29;20358;-77
2023/07/11 07:44:20;;;;;;;;;;;;;;;;;;4913225;29;19934;-78
2023/07/11 07:46:52;;;;;;;;;;;;;;;;;;4906523;29;19934;-78
2023/07/11 07:49:20;;;;;;;;;;;;;;;;;;4904772;28;20878;-78
2023/07/11 07:51:48;;;;;;;;;;;;;;;;;;4906545;29;19939;-78
2023/07/11 07:54:20;;;;;;;;;;;;;;;;;;4909934;29;19930;-78
2023/07/11 07:56:48;;;;;;;;;;;;;;;;;;4914808;29;19937;-78
2023/07/11 07:59:15;;;;;;;;;;;;;;;;;;4912965;29;19934;-77
2023/07/11 08:01:48;;;;;;;;;;;;;;;;;;4908043;28;19934;-77
2023/07/11 08:04:15;;;;;;;;;;;;;;;;;;4914933;29;19941;-78
2023/07/11 08:06:48;;;;;;;;;;;;;;;;;;4916948;29;19941;-78
2023/07/11 08:09:15;;;;;;;;;;;;;;;;;;4915989;29;19942;-77
2023/07/11 08:11:43;;;;;;;;;;;;;;;;;;4909080;29;20487;-78
2023/07/11 08:14:10;;;;;;;;;;;;;;;;;;4909538;29;19934;-78
2023/07/11 08:16:38;;;;;;;;;;;;;;;;;;4917583;28;19930;-78
2023/07/11 08:19:06;;;;;;;;;;;;;;;;;;4915538;28;20721;-77
2023/07/11 08:21:38;;;;;;;;;;;;;;;;;;4905759;29;19941;-77
2023/07/11 08:24:06;;;;;;;;;;;;;;;;;;4907231;29;19935;-78
2023/07/11 08:26:34;;;;;;;;;;;;;;;;;;4905763;29;19979;-78
2023/07/11 08:29:02;;;;;;;;;;;;;;;;;;4908026;29;19935;-78
2023/07/11 08:31:34;;;;;;;;;;;;;;;;;;4924550;28;19938;-77
2023/07/11 08:34:07;;;;;;;;;;;;;;;;;;4913181;29;20666;-78
2023/07/11 08:36:35;;;;;;;;;;;;;;;;;;4912490;29;19941;-78
2023/07/11 08:39:02;;;;;;;;;;;;;;;;;;4924607;29;19934;-77
2023/07/11 08:41:30;;;;;;;;;;;;;;;;;;4912758;29;19941;-78
2023/07/11 08:43:57;;;;;;;;;;;;;;;;;;4909449;29;19934;-78
2023/07/11 08:46:25;;;;;;;;;;;;;;;;;;4912165;29;19934;-78
2023/07/11 08:48:52;;;;;;;;;;;;;;;;;;4914187;29;19980;-78
2023/07/11 08:51:20;;;;;;;;;;;;;;;;;;4915175;28;19931;-77
2023/07/11 08:53:55;;;;;;;;;;;;;;;;;;4902379;29;19942;-78
2023/07/11 08:56:24;;;;;;;;;;;;;;;;;;4913102;28;19942;-77
2023/07/11 08:58:57;;;;;;;;;;;;;;;;;;4905600;29;19942;-78
2023/07/11 09:01:30;;;;;;;;;;;;;;;;;;4913075;28;19943;-77
2023/07/11 09:03:57;;;;;;;;;;;;;;;;;;4921844;29;20827;-78
2023/07/11 09:06:25;;;;;;;;;;;;;;;;;;4912272;29;19941;-77
2023/07/11 09:08:54;;;;;;;;;;;;;;;;;;4906880;29;19935;-77
2023/07/11 09:11:21;;;;;;;;;;;;;;;;;;4908980;29;19934;-78
2023/07/11 09:13:49;;;;;;;;;;;;;;;;;;4911157;29;19942;-78
2023/07/11 09:16:17;;;;;;;;;;;;;;;;;;4919657;28;19934;-78
2023/07/11 09:18:44;;;;;;;;;;;;;;;;;;4911505;29;19935;-78
2023/07/11 09:21:13;;;;;;;;;;;;;;;;;;4907713;29;19935;-78
2023/07/11 09:23:45;;;;;;;;;;;;;;;;;;4921602;28;19936;-77
2023/07/11 09:26:13;;;;;;;;;;;;;;;;;;4912159;29;19934;-78
2023/07/11 09:28:41;;;;;;;;;;;;;;;;;;4905532;29;19934;-77
2023/07/11 09:31:09;;;;;;;;;;;;;;;;;;4915740;28;19947;-78
2023/07/11 09:33:41;;;;;;;;;;;;;;;;;;4924415;29;19930;-78
2023/07/11 09:36:14;;;;;;;;;;;;;;;;;;4911299;29;19945;-81
2023/07/11 09:38:41;;;;;;;;;;;;;;;;;;4911071;28;19930;-78
2023/07/11 09:41:09;;;;;;;;;;;;;;;;;;4910444;29;19935;-77
2023/07/11 09:43:37;;;;;;;;;;;;;;;;;;4926760;28;19935;-79
2023/07/11 09:46:09;;;;;;;;;;;;;;;;;;4922832;28;19935;-78
2023/07/11 09:48:37;;;;;;;;;;;;;;;;;;4909605;29;20863;-78
2023/07/11 09:51:05;;;;;;;;;;;;;;;;;;4903859;28;19942;-78
2023/07/11 09:53:33;;;;;;;;;;;;;;;;;;4910477;29;19935;-78
2023/07/11 09:56:00;;;;;;;;;;;;;;;;;;4916801;29;20410;-77
2023/07/11 09:58:28;;;;;;;;;;;;;;;;;;4920201;28;20288;-79
2023/07/11 10:01:01;;;;;;;;;;;;;;;;;;4907378;29;19934;-78
2023/07/11 10:03:28;;;;;;;;;;;;;;;;;;4903901;29;20298;-78
2023/07/11 10:05:56;;;;;;;;;;;;;;;;;;4901907;29;19942;-78
2023/07/11 10:08:28;;;;;;;;;;;;;;;;;;4910084;28;19941;-79
2023/07/11 10:10:56;;;;;;;;;;;;;;;;;;4912312;29;19945;-78
2023/07/11 10:13:28;;;;;;;;;;;;;;;;;;4904316;29;20249;-78
2023/07/11 10:15:56;;;;;;;;;;;;;;;;;;4905580;29;19941;-78
2023/07/11 10:18:24;;;;;;;;;;;;;;;;;;4928076;28;19934;-78
2023/07/11 10:20:52;;;;;;;;;;;;;;;;;;4913421;29;21709;-78
2023/07/11 10:23:21;;;;;;;;;;;;;;;;;;4912766;29;19942;-78
2023/07/11 10:25:49;;;;;;;;;;;;;;;;;;4915983;29;19935;-78
2023/07/11 10:28:16;;;;;;;;;;;;;;;;;;4910085;28;19954;-79
2023/07/11 10:30:44;;;;;;;;;;;;;;;;;;4910723;29;19973;-79
2023/07/11 10:33:16;;;;;;;;;;;;;;;;;;4904178;29;20632;-78
2023/07/11 10:35:50;;;;;;;;;;;;;;;;;;4904164;29;20790;-77
2023/07/11 10:38:18;;;;;;;;;;;;;;;;;;4902234;29;19934;-79
2023/07/11 10:40:46;;;;;;;;;;;;;;;;;;4908578;29;19958;-78
2023/07/11 10:43:13;;;;;;;;;;;;;;;;;;4911970;29;19935;-78
2023/07/11 10:45:41;;;;;;;;;;;;;;;;;;4901782;29;19941;-78
2023/07/11 10:48:14;;;;;;;;;;;;;;;;;;4906161;29;19942;-78
2023/07/11 10:50:41;;;;;;;;;;;;;;;;;;4917127;28;19934;-78
2023/07/11 10:53:09;;;;;;;;;;;;;;;;;;4916700;29;20654;-78
2023/07/11 10:55:37;;;;;;;;;;;;;;;;;;4914519;29;19934;-79
2023/07/11 10:58:09;;;;;;;;;;;;;;;;;;4913629;29;19935;-78
2023/07/11 11:00:37;;;;;;;;;;;;;;;;;;4892518;28;19958;-78
2023/07/11 11:03:12;;;;;;;;;;;;;;;;;;4909475;29;19953;-78
2023/07/11 11:05:39;;;;;;;;;;;;;;;;;;4911653;29;19945;-78
2023/07/11 11:08:07;;;;;;;;;;;;;;;;;;4903082;29;19946;-78
2023/07/11 11:10:34;;;;;;;;;;;;;;;;;;4916491;29;19942;-78
2023/07/11 11:13:02;;;;;;;;;;;;;;;;;;4911632;29;19938;-78
2023/07/11 11:15:30;;;;;;;;;;;;;;;;;;4912413;29;20039;-78
2023/07/11 11:17:57;;;;;;;;;;;;;;;;;;4908044;29;20634;-79
2023/07/11 11:20:25;;;;;;;;;;;;;;;;;;4904375;29;19934;-78
2023/07/11 11:22:57;;;;;;;;;;;;;;;;;;4904640;29;19935;-79
2023/07/11 11:25:30;;;;;;;;;;;;;;;;;;4901808;29;21631;-78
2023/07/11 11:28:03;;;;;;;;;;;;;;;;;;4905989;29;19946;-78
2023/07/11 11:30:36;;;;;;;;;;;;;;;;;;4912211;29;20405;-78
2023/07/11 11:33:03;;;;;;;;;;;;;;;;;;4910456;28;19935;-78
2023/07/11 11:35:36;;;;;;;;;;;;;;;;;;4906658;29;20293;-78
2023/07/11 11:38:05;;;;;;;;;;;;;;;;;;4910425;29;19939;-79
2023/07/11 11:40:37;;;;;;;;;;;;;;;;;;4904622;29;19946;-78
2023/07/11 11:43:05;;;;;;;;;;;;;;;;;;4910162;29;19930;-78
2023/07/11 11:45:37;;;;;;;;;;;;;;;;;;4909406;29;19945;-78
2023/07/11 11:48:05;;;;;;;;;;;;;;;;;;4914483;29;19941;-79
2023/07/11 11:50:38;;;;;;;;;;;;;;;;;;4920767;28;19934;-78
2023/07/11 11:53:06;;;;;;;;;;;;;;;;;;4912040;29;20601;-78
2023/07/11 11:55:38;;;;;;;;;;;;;;;;;;4913815;29;19942;-78
2023/07/11 11:58:06;;;;;;;;;;;;;;;;;;4911070;29;19996;-78
2023/07/11 12:00:39;;;;;;;;;;;;;;;;;;4885576;28;19945;-79
2023/07/11 12:03:11;;;;;;;;;;;;;;;;;;4906851;29;19935;-78
2023/07/11 12:05:44;;;;;;;;;;;;;;;;;;4905781;29;19934;-78
2023/07/11 12:08:12;;;;;;;;;;;;;;;;;;4903962;29;20007;-78
2023/07/11 12:10:39;;;;;;;;;;;;;;;;;;4916453;29;19941;-79
2023/07/11 12:13:06;;;;;;;;;;;;;;;;;;4907222;28;19935;-79
2023/07/11 12:15:33;;;;;;;;;;;;;;;;;;4905652;29;20705;-78
2023/07/11 12:18:06;;;;;;;;;;;;;;;;;;4905692;28;20820;-80
2023/07/11 12:20:34;;;;;;;;;;;;;;;;;;4919611;28;20879;-78
2023/07/11 12:23:01;;;;;;;;;;;;;;;;;;4915642;28;19935;-79
2023/07/11 12:25:29;;;;;;;;;;;;;;;;;;4905596;29;20314;-79
2023/07/11 12:27:58;;;;;;;;;;;;;;;;;;4909738;29;19934;-79
2023/07/11 12:30:31;;;;;;;;;;;;;;;;;;4911413;29;19935;-78
2023/07/11 12:33:03;;;;;;;;;;;;;;;;;;4904794;29;19931;-79
2023/07/11 12:35:31;;;;;;;;;;;;;;;;;;4911098;28;20059;-79
2023/07/11 12:37:59;;;;;;;;;;;;;;;;;;4905693;29;19926;-79
2023/07/11 12:40:27;;;;;;;;;;;;;;;;;;4905860;29;19935;-79
2023/07/11 12:42:55;;;;;;;;;;;;;;;;;;4922097;28;20974;-79
2023/07/11 12:45:22;;;;;;;;;;;;;;;;;;4906926;29;19934;-79
2023/07/11 12:47:50;;;;;;;;;;;;;;;;;;4916404;29;20375;-84
2023/07/11 12:50:17;;;;;;;;;;;;;;;;;;4902877;29;19942;-80
2023/07/11 12:52:45;;;;;;;;;;;;;;;;;;4910552;29;19934;-79
2023/07/11 12:55:13;;;;;;;;;;;;;;;;;;4909103;29;20833;-80
2023/07/11 12:57:40;;;;;;;;;;;;;;;;;;4919691;28;19942;-79
2023/07/11 13:00:08;;;;;;;;;;;;;;;;;;4904586;29;19947;-80
2023/07/11 13:02:41;;;;;;;;;;;;;;;;;;4879883;28;19938;-80
2023/07/11 13:05:13;;;;;;;;;;;;;;;;;;4905211;29;19946;-80
2023/07/11 13:07:41;;;;;;;;;;;;;;;;;;4905651;29;19942;-79
2023/07/11 13:10:09;;;;;;;;;;;;;;;;;;4903987;29;19941;-79
2023/07/11 13:12:41;;;;;;;;;;;;;;;;;;4904017;28;19935;-79
2023/07/11 13:15:14;;;;;;;;;;;;;;;;;;4907857;29;19946;-79
2023/07/11 13:17:46;;;;;;;;;;;;;;;;;;4902128;29;19941;-80
2023/07/11 13:20:14;;;;;;;;;;;;;;;;;;4904534;29;19934;-80
2023/07/11 13:22:41;;;;;;;;;;;;;;;;;;4906033;29;19934;-80
2023/07/11 13:25:09;;;;;;;;;;;;;;;;;;4910765;29;19933;-80
2023/07/11 13:27:36;;;;;;;;;;;;;;;;;;4901445;29;19941;-81
2023/07/11 13:30:06;;;;;;;;;;;;;;;;;;4911947;29;19935;-80
2023/07/11 13:32:34;;;;;;;;;;;;;;;;;;4915210;29;19935;-80
2023/07/11 13:35:06;;;;;;;;;;;;;;;;;;4905250;29;19942;-79
2023/07/11 13:37:34;;;;;;;;;;;;;;;;;;4911179;29;19934;-81
2023/07/11 13:40:02;;;;;;;;;;;;;;;;;;4899833;29;19943;-80
2023/07/11 13:42:30;;;;;;;;;;;;;;;;;;4908364;28;19974;-80
2023/07/11 13:44:59;;;;;;;;;;;;;;;;;;4905337;29;19941;-81
2023/07/11 13:47:29;;;;;;;;;;;;;;;;;;4913338;28;19942;-80
2023/07/11 13:50:01;;;;;;;;;;;;;;;;;;4961428;28;19930;-80
2023/07/11 13:52:29;;;;;;;;;;;;;;;;;;4945645;29;19941;-80
2023/07/11 13:55:01;;;;;;;;;;;;;;;;;;4945547;29;19938;-80
2023/07/11 13:57:29;;;;;;;;;;;;;;;;;;4945487;29;20287;-80
2023/07/11 13:59:56;;;;;;;;;;;;;;;;;;4946991;29;19941;-80
2023/07/11 14:02:24;;;;;;;;;;;;;;;;;;4943831;29;19930;-81
2023/07/11 14:04:51;;;;;;;;;;;;;;;;;;4947641;29;20284;-80
2023/07/11 14:07:19;;;;;;;;;;;;;;;;;;4960429;28;19952;-80
2023/07/11 14:09:52;;;;;;;;;;;;;;;;;;4960534;28;19938;-79
2023/07/11 14:12:19;;;;;;;;;;;;;;;;;;4943173;28;20307;-81
2023/07/11 14:14:47;;;;;;;;;;;;;;;;;;4959198;28;19942;-80
2023/07/11 14:17:14;;;;;;;;;;;;;;;;;;4960471;28;20303;-80
2023/07/11 14:19:42;;;;;;;;;;;;;;;;;;4944394;29;19934;-79
2023/07/11 14:22:14;;;;;;;;;;;;;;;;;;4942199;29;19931;-80
2023/07/11 14:24:47;;;;;;;;;;;;;;;;;;4942031;29;19935;-79
2023/07/11 14:27:19;;;;;;;;;;;;;;;;;;4941703;29;19930;-80
2023/07/11 14:29:53;;;;;;;;;;;;;;;;;;4944368;29;19934;-79
2023/07/11 14:32:21;;;;;;;;;;;;;;;;;;4944398;28;19930;-79
2023/07/11 14:34:49;;;;;;;;;;;;;;;;;;4959416;28;19963;-80
2023/07/11 14:37:16;;;;;;;;;;;;;;;;;;4943482;29;20119;-79
2023/07/11 14:39:49;;;;;;;;;;;;;;;;;;4946132;29;19930;-79
2023/07/11 14:42:21;;;;;;;;;;;;;;;;;;4948321;29;19952;-80
2023/07/11 14:44:49;;;;;;;;;;;;;;;;;;4943576;29;19930;-79
2023/07/11 14:47:17;;;;;;;;;;;;;;;;;;4946392;29;19941;-79
2023/07/11 14:49:49;;;;;;;;;;;;;;;;;;4945409;29;19931;-79
2023/07/11 14:52:22;;;;;;;;;;;;;;;;;;4944158;29;20276;-79
2023/07/11 14:54:55;;;;;;;;;;;;;;;;;;4945153;29;19930;-79
2023/07/11 14:57:23;;;;;;;;;;;;;;;;;;4944261;29;19930;-78
2023/07/11 14:59:50;;;;;;;;;;;;;;;;;;4946853;28;19937;-79
2023/07/11 15:02:23;;;;;;;;;;;;;;;;;;4942556;29;20402;-79
2023/07/11 15:04:50;;;;;;;;;;;;;;;;;;4944413;29;20426;-79
2023/07/11 15:07:18;;;;;;;;;;;;;;;;;;4947649;29;19938;-78
2023/07/11 15:09:50;;;;;;;;;;;;;;;;;;4947701;29;20383;-79
2023/07/11 15:12:23;;;;;;;;;;;;;;;;;;4946371;29;19931;-79
2023/07/11 15:14:56;;;;;;;;;;;;;;;;;;4945284;29;19938;-79
2023/07/11 15:17:23;;;;;;;;;;;;;;;;;;4946393;29;19926;-78
2023/07/11 15:19:56;;;;;;;;;;;;;;;;;;4946289;29;19938;-80
2023/07/11 15:22:23;;;;;;;;;;;;;;;;;;4947246;29;19930;-79
2023/07/11 15:24:51;;;;;;;;;;;;;;;;;;4951600;28;19938;-80
2023/07/11 15:27:19;;;;;;;;;;;;;;;;;;4959700;28;20011;-79
2023/07/11 15:29:51;;;;;;;;;;;;;;;;;;4945934;29;19937;-80
2023/07/11 15:32:19;;;;;;;;;;;;;;;;;;4961385;28;19930;-80
2023/07/11 15:34:46;;;;;;;;;;;;;;;;;;4937990;29;19930;-79
2023/07/11 15:37:14;;;;;;;;;;;;;;;;;;4949761;29;20467;-79
2023/07/11 15:39:47;;;;;;;;;;;;;;;;;;4947874;29;19941;-80
2023/07/11 15:42:14;;;;;;;;;;;;;;;;;;4947773;29;20386;-79
2023/07/11 15:44:42;;;;;;;;;;;;;;;;;;4959319;28;19938;-79
2023/07/11 15:47:09;;;;;;;;;;;;;;;;;;4941217;29;19941;-81
2023/07/11 15:49:37;;;;;;;;;;;;;;;;;;4945074;29;19935;-79
2023/07/11 15:52:04;;;;;;;;;;;;;;;;;;4947546;29;19930;-80
2023/07/11 15:54:32;;;;;;;;;;;;;;;;;;4949208;29;19931;-79
2023/07/11 15:57:00;;;;;;;;;;;;;;;;;;4942680;28;19931;-80
2023/07/11 15:59:32;;;;;;;;;;;;;;;;;;4944685;29;20291;-79
2023/07/11 16:02:00;;;;;;;;;;;;;;;;;;4939219;29;19926;-81
2023/07/11 16:04:32;;;;;;;;;;;;;;;;;;4936121;29;19953;-79
2023/07/11 16:07:00;;;;;;;;;;;;;;;;;;4946875;29;19926;-80
2023/07/11 16:09:32;;;;;;;;;;;;;;;;;;4946654;29;19937;-80
2023/07/11 16:12:05;;;;;;;;;;;;;;;;;;4945433;28;19933;-79
2023/07/11 16:14:32;;;;;;;;;;;;;;;;;;4945815;29;19937;-78
2023/07/11 16:17:05;;;;;;;;;;;;;;;;;;4947528;29;20391;-80
2023/07/11 16:19:32;;;;;;;;;;;;;;;;;;4959675;28;19930;-80
2023/07/11 16:22:06;;;;;;;;;;;;;;;;;;4943608;29;19942;-79
2023/07/11 16:24:34;;;;;;;;;;;;;;;;;;4962168;28;19931;-79
2023/07/11 16:27:01;;;;;;;;;;;;;;;;;;4948303;29;19931;-79
2023/07/11 16:29:29;;;;;;;;;;;;;;;;;;4947384;29;19941;-79
2023/07/11 16:31:56;;;;;;;;;;;;;;;;;;4946180;29;20311;-79
2023/07/11 16:34:24;;;;;;;;;;;;;;;;;;4945782;29;19931;-79
2023/07/11 16:36:56;;;;;;;;;;;;;;;;;;4947284;29;19937;-78
2023/07/11 16:39:25;;;;;;;;;;;;;;;;;;4948611;29;20232;-79
2023/07/11 16:41:52;;;;;;;;;;;;;;;;;;4960625;28;19930;-79
2023/07/11 16:44:25;;;;;;;;;;;;;;;;;;4947757;29;19937;-79
2023/07/11 16:46:53;;;;;;;;;;;;;;;;;;4960511;28;19930;-80
2023/07/11 16:49:25;;;;;;;;;;;;;;;;;;4947791;29;19930;-80
2023/07/11 16:51:53;;;;;;;;;;;;;;;;;;4946692;29;19930;-79
2023/07/11 16:54:26;;;;;;;;;;;;;;;;;;4934792;29;19938;-80
2023/07/11 16:56:53;;;;;;;;;;;;;;;;;;4956846;28;20310;-79
2023/07/11 16:59:27;;;;;;;;;;;;;;;;;;4937564;29;19930;-79